Terminal Aerodrome Forecast
Issued by NWS Oklahoma City, OK

Home | Current Version | Previous Version | Text Only | Print | Product List | Glossary On
Versions: 1 2 3 4 5 6 7 8 9 10 11 12 13 14 15 16 17 18 19 20 21 22 23 24 25 26
000
FTUS44 KOUN 232052 AAB
TAFOUN
TAF AMD
KOUN 232052Z 2321/2418 10010KT P6SM SCT050 SCT120 BKN250
      TEMPO 2321/2401 VRB40KT 2SM TSRA BKN040CB
     FM240200 06006KT P6SM SCT060 BKN250=

USA.gov is the U.S. government's official web portal to all federal, state and local government web resources and services.